Pagina principale
METAR-TAF:

METAR-TAF

Aeroporti :

Dübendorf, Svizzera

latitudine: 47-23-55N, longitudine: 8-38-53E, altezza: 448 m

Osservazione

Il bollettino è stato emesso 34 minuti fa, alle 08:20 UTC
Vento 5 kt da est/nord-est, variando fra nord/nord-est e est/sud-est
Temperature 3°C
Umidità 81%
Pressione 1024 hPa
Visibilità 10 km o più
Cielo coperto ad un'altezza di 2000 ft

METAR: LSMD 170820Z AUTO 06005KT 020V110 9999NDV OVC020 03/M00 Q1024 RMK

Ora: 09:54 (08:54 UTC)


TAF: mancante

Osservazioni e previsioni meteorologiche di più di 4000 aeroporti (messaggi METAR e TAF).

Le stazioni disponibili sono rappresentate dai dischi gialli e rossi sulla carta.

Puntare il mouse per vedere il nome della stazione.

Clicca sopra per visualizzare le osservazioni e previsioni meteorologiche.

Per cambiare la mappa : fare clic sui pulsanti verdi con una croce nera per ingrandire, il pulsante verde con un trattino per diminuire, o sulla freccia verde per le mappe adiacenti.


METAR-TAF: